Time;durP1;ratioP1;P1;durP2;ratioP2;P2;SDS_P1;SDS_P2;PMS_P1;PMS_P2;Temp;Humidity;BMP_temperature;BMP_pressure;BME280_temperature;BME280_humidity;BME280_pressure;Samples;Min_cycle;Max_cycle;Signal;HPM_P1;HPM_P2
2022/07/13 00:01:18;;;;;;;3.15;1.67;;;;;;;;;;5045040;28;20603;-80
2022/07/13 00:04:04;;;;;;;2.88;1.65;;;;;;;;;;5044415;28;20120;-80
2022/07/13 00:06:49;;;;;;;2.72;1.40;;;;;;;;;;5044398;28;20443;-80
2022/07/13 00:09:35;;;;;;;2.83;1.48;;;;;;;;;;5030580;28;20091;-80
2022/07/13 00:12:21;;;;;;;2.20;1.40;;;;;;;;;;5045145;28;20033;-80
2022/07/13 00:15:07;;;;;;;3.05;1.65;;;;;;;;;;5044760;28;20042;-80
2022/07/13 00:17:53;;;;;;;2.65;1.70;;;;;;;;;;5030210;28;20093;-80
2022/07/13 00:20:39;;;;;;;4.00;1.75;;;;;;;;;;5031876;28;20427;-80
2022/07/13 00:23:24;;;;;;;6.43;1.70;;;;;;;;;;5045291;28;20045;-80
2022/07/13 00:26:10;;;;;;;2.95;1.33;;;;;;;;;;5044104;28;20033;-80
2022/07/13 00:28:56;;;;;;;2.90;1.60;;;;;;;;;;5045063;28;20046;-80
2022/07/13 00:31:42;;;;;;;3.35;1.90;;;;;;;;;;5045196;28;20045;-80
2022/07/13 00:34:30;;;;;;;3.50;1.55;;;;;;;;;;5045193;28;20045;-80
2022/07/13 00:37:16;;;;;;;2.22;1.35;;;;;;;;;;5042865;28;20034;-81
2022/07/13 00:40:02;;;;;;;2.85;1.50;;;;;;;;;;5044485;28;20468;-81
2022/07/13 00:42:48;;;;;;;3.38;1.98;;;;;;;;;;5044050;28;20421;-80
2022/07/13 00:45:34;;;;;;;2.47;1.50;;;;;;;;;;5044783;28;20060;-80
2022/07/13 00:48:19;;;;;;;3.08;1.35;;;;;;;;;;5044902;28;20045;-80
2022/07/13 00:51:05;;;;;;;4.65;1.38;;;;;;;;;;5043604;28;20042;-80
2022/07/13 00:53:51;;;;;;;2.38;1.30;;;;;;;;;;5044391;28;20124;-81
2022/07/13 00:56:37;;;;;;;2.67;1.50;;;;;;;;;;5047054;28;20029;-80
2022/07/13 00:59:23;;;;;;;2.72;1.65;;;;;;;;;;5047973;28;20107;-80
2022/07/13 01:02:09;;;;;;;3.95;1.83;;;;;;;;;;5031405;28;20077;-80
2022/07/13 01:04:55;;;;;;;2.30;1.50;;;;;;;;;;5032612;28;20076;-80
2022/07/13 01:07:40;;;;;;;2.70;1.50;;;;;;;;;;5034802;28;20060;-80
2022/07/13 01:10:26;;;;;;;2.55;1.35;;;;;;;;;;5047908;28;20534;-80
2022/07/13 01:13:12;;;;;;;3.55;1.42;;;;;;;;;;5048283;28;20431;-80
2022/07/13 01:15:58;;;;;;;2.13;1.45;;;;;;;;;;5033645;28;20128;-80
2022/07/13 01:18:43;;;;;;;2.42;1.45;;;;;;;;;;5034616;28;20037;-80
2022/07/13 01:21:29;;;;;;;2.42;1.40;;;;;;;;;;5047271;28;20037;-80
2022/07/13 01:24:15;;;;;;;2.40;1.52;;;;;;;;;;5046448;28;20041;-80
2022/07/13 01:27:01;;;;;;;2.30;1.30;;;;;;;;;;5047682;28;20392;-80
2022/07/13 01:29:47;;;;;;;2.63;1.20;;;;;;;;;;5047777;28;20068;-80
2022/07/13 01:33:02;;;;;;;3.42;1.50;;;;;;;;;;5033342;28;20041;-80
2022/07/13 01:35:48;;;;;;;2.33;1.23;;;;;;;;;;5028540;28;20083;-80
2022/07/13 01:38:33;;;;;;;2.47;1.30;;;;;;;;;;5047390;28;20107;-80
2022/07/13 01:41:19;;;;;;;3.05;1.75;;;;;;;;;;5047357;28;20038;-80
2022/07/13 01:44:05;;;;;;;2.60;1.55;;;;;;;;;;5034563;28;20037;-80
2022/07/13 01:46:51;;;;;;;2.25;1.65;;;;;;;;;;5033040;28;20127;-80
2022/07/13 01:49:36;;;;;;;2.83;1.50;;;;;;;;;;5046252;28;20045;-80
2022/07/13 01:52:22;;;;;;;1.88;1.20;;;;;;;;;;5047584;28;20034;-81
2022/07/13 01:55:09;;;;;;;2.88;1.50;;;;;;;;;;5047305;28;20037;-80
2022/07/13 01:57:58;;;;;;;2.08;1.13;;;;;;;;;;5045946;28;20046;-80
2022/07/13 02:00:44;;;;;;;3.03;1.50;;;;;;;;;;5046327;28;20038;-80
2022/07/13 02:03:30;;;;;;;3.38;1.70;;;;;;;;;;5046930;28;20536;-80
2022/07/13 02:06:16;;;;;;;3.33;1.30;;;;;;;;;;5045444;28;20053;-80
2022/07/13 02:09:03;;;;;;;2.42;1.35;;;;;;;;;;5045644;28;20041;-80
2022/07/13 02:11:49;;;;;;;2.42;1.30;;;;;;;;;;5046557;28;20037;-80
2022/07/13 02:14:34;;;;;;;3.08;1.50;;;;;;;;;;5047042;28;20101;-80
2022/07/13 02:17:20;;;;;;;3.13;1.40;;;;;;;;;;5031231;28;20037;-80
2022/07/13 02:20:09;;;;;;;2.63;1.25;;;;;;;;;;5031988;28;20046;-80
2022/07/13 02:22:55;;;;;;;2.28;1.50;;;;;;;;;;5031227;28;20140;-80
2022/07/13 02:25:40;;;;;;;2.30;1.40;;;;;;;;;;5030259;28;20037;-80
2022/07/13 02:28:26;;;;;;;3.40;1.70;;;;;;;;;;5032398;28;20135;-80
2022/07/13 02:31:13;;;;;;;2.70;1.45;;;;;;;;;;5045441;28;20053;-80
2022/07/13 02:33:59;;;;;;;2.15;1.27;;;;;;;;;;5046326;28;20466;-81
2022/07/13 02:36:45;;;;;;;2.10;1.25;;;;;;;;;;5029879;28;20064;-80
2022/07/13 02:39:31;;;;;;;4.10;2.67;;;;;;;;;;5044789;28;20053;-81
2022/07/13 02:42:16;;;;;;;2.33;1.13;;;;;;;;;;5046519;28;20049;-80
2022/07/13 02:45:03;;;;;;;3.40;1.63;;;;;;;;;;5046429;28;20080;-80
2022/07/13 02:47:49;;;;;;;2.92;1.65;;;;;;;;;;5030874;28;20415;-80
2022/07/13 02:50:34;;;;;;;2.63;1.30;;;;;;;;;;5044948;28;20049;-80
2022/07/13 02:53:20;;;;;;;2.85;1.58;;;;;;;;;;5046301;28;20535;-81
2022/07/13 02:56:07;;;;;;;2.10;1.27;;;;;;;;;;5033214;28;20500;-80
2022/07/13 02:58:52;;;;;;;3.13;1.30;;;;;;;;;;5044726;28;20038;-80
2022/07/13 03:01:38;;;;;;;3.35;1.40;;;;;;;;;;5030456;28;20483;-80
2022/07/13 03:04:24;;;;;;;3.20;1.75;;;;;;;;;;5045803;28;20455;-80
2022/07/13 03:07:10;;;;;;;2.33;1.52;;;;;;;;;;5032830;28;20045;-80
2022/07/13 03:09:57;;;;;;;2.97;1.83;;;;;;;;;;5044311;28;20037;-80
2022/07/13 03:12:42;;;;;;;2.08;1.13;;;;;;;;;;5031491;28;20113;-80
2022/07/13 03:15:28;;;;;;;1.80;1.35;;;;;;;;;;5030553;28;20033;-80
2022/07/13 03:18:14;;;;;;;2.25;1.27;;;;;;;;;;5031524;28;20046;-80
2022/07/13 03:21:00;;;;;;;2.72;1.58;;;;;;;;;;5032246;28;20111;-80
2022/07/13 03:23:45;;;;;;;2.78;1.50;;;;;;;;;;5045845;28;20152;-80
2022/07/13 03:26:31;;;;;;;1.45;0.90;;;;;;;;;;5045812;28;20034;-80
2022/07/13 03:29:17;;;;;;;2.88;1.50;;;;;;;;;;5032541;28;20057;-80
2022/07/13 03:32:03;;;;;;;1.98;1.30;;;;;;;;;;5032360;28;20042;-80
2022/07/13 03:34:48;;;;;;;2.13;1.40;;;;;;;;;;5030517;28;20029;-80
2022/07/13 03:37:34;;;;;;;2.47;1.40;;;;;;;;;;5030441;28;20057;-80
2022/07/13 03:40:20;;;;;;;2.67;1.50;;;;;;;;;;5045311;28;20037;-80
2022/07/13 03:43:06;;;;;;;2.38;1.08;;;;;;;;;;5031264;28;20045;-80
2022/07/13 03:45:51;;;;;;;2.67;1.33;;;;;;;;;;5044503;28;20034;-80
2022/07/13 03:48:38;;;;;;;2.42;1.35;;;;;;;;;;5044383;28;20045;-80
2022/07/13 03:51:24;;;;;;;2.53;1.55;;;;;;;;;;5045389;28;20507;-80
2022/07/13 03:54:09;;;;;;;2.60;1.33;;;;;;;;;;5044615;28;20072;-80
2022/07/13 03:56:55;;;;;;;2.17;1.20;;;;;;;;;;5044438;28;20037;-80
2022/07/13 03:59:41;;;;;;;2.55;1.40;;;;;;;;;;5044250;28;20041;-80
2022/07/13 04:02:27;;;;;;;2.42;1.13;;;;;;;;;;5044859;28;20091;-80
2022/07/13 04:05:13;;;;;;;2.80;1.50;;;;;;;;;;5045171;28;20100;-80
2022/07/13 04:07:58;;;;;;;1.58;1.10;;;;;;;;;;5045123;28;20507;-80
2022/07/13 04:10:44;;;;;;;2.10;1.02;;;;;;;;;;5043523;28;20103;-80
2022/07/13 04:13:30;;;;;;;2.88;1.85;;;;;;;;;;5031015;28;20120;-80
2022/07/13 04:16:16;;;;;;;2.05;1.25;;;;;;;;;;5044139;28;20045;-80
2022/07/13 04:19:02;;;;;;;2.08;0.95;;;;;;;;;;5031832;28;20052;-80
2022/07/13 04:21:47;;;;;;;2.40;1.52;;;;;;;;;;5044903;28;20499;-80
2022/07/13 04:24:33;;;;;;;3.10;1.33;;;;;;;;;;5045228;28;20393;-80
2022/07/13 04:27:19;;;;;;;1.70;1.10;;;;;;;;;;5032057;28;20468;-80
2022/07/13 04:30:05;;;;;;;2.67;1.38;;;;;;;;;;5046216;28;20049;-80
2022/07/13 04:32:51;;;;;;;2.50;1.70;;;;;;;;;;5047767;28;20519;-80
2022/07/13 04:35:36;;;;;;;2.13;1.33;;;;;;;;;;5048979;28;20468;-80
2022/07/13 04:38:22;;;;;;;2.40;1.50;;;;;;;;;;5048948;28;20503;-80
2022/07/13 04:41:08;;;;;;;2.10;1.40;;;;;;;;;;5049153;28;20037;-80
2022/07/13 04:43:54;;;;;;;2.60;1.30;;;;;;;;;;5035351;28;20485;-80
2022/07/13 04:46:39;;;;;;;1.75;1.00;;;;;;;;;;5035294;28;20034;-80
2022/07/13 04:49:25;;;;;;;2.15;0.95;;;;;;;;;;5032837;28;20107;-80
2022/07/13 04:52:11;;;;;;;2.65;1.33;;;;;;;;;;5048712;28;20041;-80
2022/07/13 04:54:57;;;;;;;2.40;1.20;;;;;;;;;;5048326;28;20041;-80
2022/07/13 04:57:42;;;;;;;1.90;1.20;;;;;;;;;;5048422;28;20462;-80
2022/07/13 05:00:28;;;;;;;1.63;0.98;;;;;;;;;;5048436;28;20041;-80
2022/07/13 05:03:14;;;;;;;2.10;1.25;;;;;;;;;;5047205;28;20049;-80
2022/07/13 05:06:00;;;;;;;5.15;1.55;;;;;;;;;;5033297;28;20068;-80
2022/07/13 05:08:46;;;;;;;3.38;1.38;;;;;;;;;;5047381;28;20046;-80
2022/07/13 05:11:31;;;;;;;2.10;1.05;;;;;;;;;;5034863;28;20038;-80
2022/07/13 05:14:17;;;;;;;2.25;0.90;;;;;;;;;;5046996;28;20033;-80
2022/07/13 05:17:03;;;;;;;2.22;1.20;;;;;;;;;;5048145;28;20034;-80
2022/07/13 05:19:49;;;;;;;2.30;1.20;;;;;;;;;;5047678;28;20052;-80
2022/07/13 05:22:34;;;;;;;2.30;1.17;;;;;;;;;;5047989;28;20051;-80
2022/07/13 05:25:20;;;;;;;2.60;1.42;;;;;;;;;;5048121;28;20044;-80
2022/07/13 05:28:06;;;;;;;3.28;1.02;;;;;;;;;;5046639;28;20136;-80
2022/07/13 05:30:52;;;;;;;1.88;0.95;;;;;;;;;;5046644;28;20407;-80
2022/07/13 05:33:38;;;;;;;2.45;0.95;;;;;;;;;;5047591;28;20124;-80
2022/07/13 05:36:23;;;;;;;1.77;1.02;;;;;;;;;;5048107;28;20537;-80
2022/07/13 05:39:09;;;;;;;2.13;1.13;;;;;;;;;;5047361;28;20055;-80
2022/07/13 05:41:55;;;;;;;2.45;1.33;;;;;;;;;;5047006;28;20489;-80
2022/07/13 05:44:41;;;;;;;2.10;1.17;;;;;;;;;;5047048;28;20042;-80
2022/07/13 05:47:27;;;;;;;1.73;0.90;;;;;;;;;;5046346;28;20116;-80
2022/07/13 05:50:13;;;;;;;1.67;0.98;;;;;;;;;;5034081;28;20046;-80
2022/07/13 05:52:59;;;;;;;1.73;1.00;;;;;;;;;;5046411;28;20042;-80
2022/07/13 05:55:44;;;;;;;2.20;1.20;;;;;;;;;;5047422;28;20064;-80
2022/07/13 05:58:31;;;;;;;1.63;0.90;;;;;;;;;;5046286;28;20034;-80
2022/07/13 06:01:16;;;;;;;3.83;1.10;;;;;;;;;;5047388;28;20056;-80
2022/07/13 06:04:02;;;;;;;2.00;1.10;;;;;;;;;;5033797;28;20406;-80
2022/07/13 06:06:48;;;;;;;2.10;0.80;;;;;;;;;;5047585;28;20415;-80
2022/07/13 06:09:34;;;;;;;2.53;1.27;;;;;;;;;;5033295;28;20116;-80
2022/07/13 06:12:19;;;;;;;3.47;1.30;;;;;;;;;;5033855;28;20030;-80
2022/07/13 06:15:05;;;;;;;1.40;0.98;;;;;;;;;;5033976;28;20037;-80
2022/07/13 06:17:51;;;;;;;2.25;1.17;;;;;;;;;;5045404;28;20039;-80
2022/07/13 06:20:37;;;;;;;2.35;1.08;;;;;;;;;;5047024;28;20045;-80
2022/07/13 06:23:23;;;;;;;1.75;0.82;;;;;;;;;;5046913;28;20069;-80
2022/07/13 06:26:09;;;;;;;2.50;1.40;;;;;;;;;;5046728;28;20120;-80
2022/07/13 06:28:54;;;;;;;2.45;1.10;;;;;;;;;;5045481;28;20042;-80
2022/07/13 06:31:40;;;;;;;2.40;1.20;;;;;;;;;;5045967;28;20048;-80
2022/07/13 06:34:26;;;;;;;1.95;1.13;;;;;;;;;;5033575;28;20443;-80
2022/07/13 06:37:12;;;;;;;2.42;1.00;;;;;;;;;;5045466;28;20049;-80
2022/07/13 06:39:57;;;;;;;2.17;1.25;;;;;;;;;;5046194;28;20041;-80
2022/07/13 06:42:43;;;;;;;2.20;1.00;;;;;;;;;;5046528;28;20040;-80
2022/07/13 06:45:29;;;;;;;1.88;0.70;;;;;;;;;;5046375;28;20096;-80
2022/07/13 06:48:15;;;;;;;1.70;1.00;;;;;;;;;;5045196;28;20450;-80
2022/07/13 06:51:01;;;;;;;2.10;1.35;;;;;;;;;;5045959;28;20088;-80
2022/07/13 06:53:46;;;;;;;2.22;1.20;;;;;;;;;;5031159;28;20041;-80
2022/07/13 06:56:32;;;;;;;2.50;1.40;;;;;;;;;;5046384;28;20106;-80
2022/07/13 06:59:18;;;;;;;2.20;1.48;;;;;;;;;;5030561;28;20040;-80
2022/07/13 07:02:04;;;;;;;2.17;0.90;;;;;;;;;;5032409;28;20538;-80
2022/07/13 07:04:49;;;;;;;2.22;1.02;;;;;;;;;;5046107;28;20033;-80
2022/07/13 07:07:39;;;;;;;1.52;0.80;;;;;;;;;;5031119;28;20089;-80
2022/07/13 07:10:25;;;;;;;2.47;1.17;;;;;;;;;;5045554;28;20049;-80
2022/07/13 07:13:11;;;;;;;3.33;1.25;;;;;;;;;;5044835;28;20507;-80
2022/07/13 07:15:56;;;;;;;2.95;1.10;;;;;;;;;;5045716;28;20073;-80
2022/07/13 07:18:42;;;;;;;1.60;0.77;;;;;;;;;;5032451;28;20492;-80
2022/07/13 07:21:28;;;;;;;1.45;0.88;;;;;;;;;;5032577;28;20119;-80
2022/07/13 07:24:13;;;;;;;1.88;1.00;;;;;;;;;;5045995;28;20034;-80
2022/07/13 07:26:59;;;;;;;3.00;1.10;;;;;;;;;;5044681;28;20041;-80
2022/07/13 07:29:46;;;;;;;3.03;1.33;;;;;;;;;;5044184;28;20124;-80
2022/07/13 07:32:32;;;;;;;1.65;1.10;;;;;;;;;;5044256;28;20034;-80
2022/07/13 07:35:17;;;;;;;1.77;0.80;;;;;;;;;;5031175;28;20420;-81
2022/07/13 07:38:03;;;;;;;2.00;1.10;;;;;;;;;;5045351;28;20038;-80
2022/07/13 07:40:49;;;;;;;2.10;0.82;;;;;;;;;;5030087;28;20045;-80
2022/07/13 07:43:35;;;;;;;2.13;1.33;;;;;;;;;;5044450;28;20048;-80
2022/07/13 07:46:21;;;;;;;3.17;1.05;;;;;;;;;;5031975;28;20564;-80
2022/07/13 07:49:07;;;;;;;2.53;1.08;;;;;;;;;;5032125;28;20091;-81
2022/07/13 07:51:52;;;;;;;1.45;0.95;;;;;;;;;;5029984;28;20041;-80
2022/07/13 07:54:38;;;;;;;2.13;1.00;;;;;;;;;;5045791;28;20033;-80
2022/07/13 07:57:24;;;;;;;2.22;0.90;;;;;;;;;;5030017;28;20567;-81
2022/07/13 08:00:10;;;;;;;1.70;1.00;;;;;;;;;;5045301;28;20064;-80
2022/07/13 08:02:57;;;;;;;5.00;1.05;;;;;;;;;;5030865;28;20037;-80
2022/07/13 08:05:47;;;;;;;1.80;0.88;;;;;;;;;;5047784;28;20037;-80
2022/07/13 08:08:32;;;;;;;1.83;0.93;;;;;;;;;;5036634;28;20508;-81
2022/07/13 08:11:19;;;;;;;1.90;0.80;;;;;;;;;;5049546;28;20068;-80
2022/07/13 08:14:05;;;;;;;1.88;1.00;;;;;;;;;;5036052;28;20038;-81
2022/07/13 08:16:51;;;;;;;1.48;0.88;;;;;;;;;;5049069;28;20049;-80
2022/07/13 08:19:37;;;;;;;2.15;0.80;;;;;;;;;;5049186;28;20052;-81
2022/07/13 08:22:22;;;;;;;2.50;0.93;;;;;;;;;;5049221;28;20034;-80
2022/07/13 08:25:08;;;;;;;1.65;0.98;;;;;;;;;;5036003;28;20052;-80
2022/07/13 08:27:54;;;;;;;1.48;0.80;;;;;;;;;;5048880;28;20041;-81
2022/07/13 08:30:41;;;;;;;2.47;1.08;;;;;;;;;;5048293;28;20033;-80
2022/07/13 08:38:34;;;;;;;2.60;0.77;;;;;;;;;;5035679;28;20088;-81
2022/07/13 08:39:47;;;;;;;2.05;0.93;;;;;;;;;;5045273;28;20125;-81
2022/07/13 08:42:32;;;;;;;1.70;0.70;;;;;;;;;;5035748;28;20424;-81
2022/07/13 08:45:18;;;;;;;1.80;1.00;;;;;;;;;;5035559;28;20496;-80
2022/07/13 08:48:10;;;;;;;1.33;0.80;;;;;;;;;;5048629;28;20060;-81
2022/07/13 08:50:55;;;;;;;1.73;1.00;;;;;;;;;;5048127;28;20529;-81
2022/07/13 08:53:41;;;;;;;2.45;0.82;;;;;;;;;;5047341;28;20400;-80
2022/07/13 08:56:27;;;;;;;2.75;1.27;;;;;;;;;;5047229;28;20409;-81
2022/07/13 08:59:13;;;;;;;2.63;1.38;;;;;;;;;;5048443;28;20052;-81
2022/07/13 09:01:59;;;;;;;2.85;0.60;;;;;;;;;;5048692;28;20038;-81
2022/07/13 09:04:44;;;;;;;1.58;0.70;;;;;;;;;;5048119;28;20127;-81
2022/07/13 09:07:31;;;;;;;2.08;0.95;;;;;;;;;;5035215;28;20037;-81
2022/07/13 09:10:19;;;;;;;1.85;0.73;;;;;;;;;;5047545;28;20053;-81
2022/07/13 09:13:05;;;;;;;1.63;0.80;;;;;;;;;;5032998;28;20076;-81
2022/07/13 09:15:52;;;;;;;2.67;0.90;;;;;;;;;;5045816;28;20045;-81
2022/07/13 09:18:39;;;;;;;2.28;1.20;;;;;;;;;;5047375;28;20400;-81
2022/07/13 09:21:24;;;;;;;1.60;0.80;;;;;;;;;;5048107;28;20046;-81
2022/07/13 09:24:10;;;;;;;1.83;0.75;;;;;;;;;;5034879;28;20037;-81
2022/07/13 09:26:56;;;;;;;1.83;0.65;;;;;;;;;;5046691;28;20100;-81
2022/07/13 09:29:42;;;;;;;1.65;0.82;;;;;;;;;;5046955;28;20049;-80
2022/07/13 09:32:27;;;;;;;1.02;0.73;;;;;;;;;;5032835;28;20037;-81
2022/07/13 09:35:13;;;;;;;3.83;0.80;;;;;;;;;;5047882;28;20038;-81
2022/07/13 09:37:59;;;;;;;1.95;0.75;;;;;;;;;;5047683;28;20037;-81
2022/07/13 09:40:45;;;;;;;1.35;0.77;;;;;;;;;;5047156;28;20060;-81
2022/07/13 09:46:35;;;;;;;3.08;0.80;;;;;;;;;;5032723;28;20453;-81
2022/07/13 09:49:30;;;;;;;1.83;1.10;;;;;;;;;;5046295;28;20073;-81
2022/07/13 09:52:19;;;;;;;2.50;0.80;;;;;;;;;;5033420;28;20116;-81
2022/07/13 09:55:06;;;;;;;2.03;1.00;;;;;;;;;;5032969;28;20037;-81
2022/07/13 09:57:52;;;;;;;2.75;0.85;;;;;;;;;;5046922;28;20072;-81
2022/07/13 10:00:38;;;;;;;2.50;1.33;;;;;;;;;;5047087;28;20034;-81
2022/07/13 10:03:25;;;;;;;1.42;0.65;;;;;;;;;;5045481;28;20048;-81
2022/07/13 10:06:11;;;;;;;4.50;0.93;;;;;;;;;;5032622;28;20114;-81
2022/07/13 10:08:57;;;;;;;1.70;0.90;;;;;;;;;;5044593;28;20451;-81
2022/07/13 10:11:43;;;;;;;3.50;0.90;;;;;;;;;;5045900;28;20092;-81
2022/07/13 10:14:29;;;;;;;1.90;0.80;;;;;;;;;;5046989;28;20415;-81
2022/07/13 10:17:15;;;;;;;1.30;0.73;;;;;;;;;;5032821;28;20045;-81
2022/07/13 10:20:04;;;;;;;2.05;0.80;;;;;;;;;;5046619;28;20045;-81
2022/07/13 10:22:49;;;;;;;2.45;0.80;;;;;;;;;;5046119;28;20038;-81
2022/07/13 10:25:42;;;;;;;2.65;0.82;;;;;;;;;;5046578;28;20102;-81
2022/07/13 10:28:28;;;;;;;1.23;0.55;;;;;;;;;;5045313;28;20037;-81
2022/07/13 10:31:27;;;;;;;2.17;0.80;;;;;;;;;;5031461;28;20514;-81
2022/07/13 10:34:12;;;;;;;1.73;1.10;;;;;;;;;;5032190;28;20507;-81
2022/07/13 10:37:00;;;;;;;1.70;0.80;;;;;;;;;;5046777;28;20052;-81
2022/07/13 10:40:11;;;;;;;1.60;0.90;;;;;;;;;;5044803;28;20045;-81
2022/07/13 10:43:06;;;;;;;3.90;0.77;;;;;;;;;;5046270;28;20044;-81
2022/07/13 10:45:52;;;;;;;2.15;1.00;;;;;;;;;;5032667;28;20121;-81
2022/07/13 10:48:40;;;;;;;1.35;0.60;;;;;;;;;;5031220;28;20591;-81
2022/07/13 10:51:26;;;;;;;2.35;0.90;;;;;;;;;;5044473;28;20068;-81
2022/07/13 10:54:12;;;;;;;1.77;0.80;;;;;;;;;;5044178;28;20045;-81
2022/07/13 10:57:16;;;;;;;1.65;0.80;;;;;;;;;;5046408;28;20037;-82
2022/07/13 11:00:19;;;;;;;2.20;0.80;;;;;;;;;;5045692;28;20081;-81
2022/07/13 11:03:06;;;;;;;1.67;0.88;;;;;;;;;;5044771;28;20065;-81
2022/07/13 11:06:07;;;;;;;1.35;0.68;;;;;;;;;;5047037;28;20065;-81
2022/07/13 11:09:18;;;;;;;1.80;0.60;;;;;;;;;;5029795;28;20126;-82
2022/07/13 11:12:18;;;;;;;1.77;0.95;;;;;;;;;;5045472;28;20527;-81
2022/07/13 11:15:15;;;;;;;2.70;0.70;;;;;;;;;;5043087;28;20038;-81
2022/07/13 11:18:31;;;;;;;1.75;0.68;;;;;;;;;;5032509;28;20120;-81
2022/07/13 11:21:22;;;;;;;1.65;0.95;;;;;;;;;;5026769;28;20060;-81
2022/07/13 11:27:14;;;;;;;1.00;0.50;;;;;;;;;;5030908;28;20029;-82
2022/07/13 11:30:00;;;;;;;1.30;0.70;;;;;;;;;;5044405;28;20541;-81
2022/07/13 11:32:45;;;;;;;1.55;0.57;;;;;;;;;;5032563;28;20044;-82
2022/07/13 11:35:31;;;;;;;1.25;0.57;;;;;;;;;;5045993;28;20037;-81
2022/07/13 11:38:19;;;;;;;1.48;0.65;;;;;;;;;;5030417;28;20056;-82
2022/07/13 11:41:05;;;;;;;1.25;0.60;;;;;;;;;;5045147;28;20072;-82
2022/07/13 11:43:51;;;;;;;1.67;1.00;;;;;;;;;;5044361;28;20039;-81
2022/07/13 11:46:37;;;;;;;2.35;1.42;;;;;;;;;;5044176;28;20042;-82
2022/07/13 11:49:23;;;;;;;2.97;0.60;;;;;;;;;;5029859;28;20041;-82
2022/07/13 11:52:23;;;;;;;2.15;0.60;;;;;;;;;;5044594;28;20057;-82
2022/07/13 11:55:09;;;;;;;1.25;0.60;;;;;;;;;;5044009;28;20042;-81
2022/07/13 11:57:58;;;;;;;1.05;0.73;;;;;;;;;;5044454;28;20046;-82
2022/07/13 12:00:43;;;;;;;1.85;0.80;;;;;;;;;;5045084;28;20120;-81
2022/07/13 12:03:32;;;;;;;1.63;0.85;;;;;;;;;;5030899;28;20038;-82
2022/07/13 12:06:18;;;;;;;1.27;0.60;;;;;;;;;;5030689;28;20034;-82
2022/07/13 12:09:04;;;;;;;1.90;0.60;;;;;;;;;;5043922;28;20049;-82
2022/07/13 12:11:49;;;;;;;1.00;0.50;;;;;;;;;;5043038;28;20045;-82
2022/07/13 12:14:35;;;;;;;2.22;0.95;;;;;;;;;;5030908;28;20049;-81
2022/07/13 12:17:21;;;;;;;1.33;0.80;;;;;;;;;;5043999;28;20034;-82
2022/07/13 12:20:14;;;;;;;1.63;0.70;;;;;;;;;;5030340;28;20050;-82
2022/07/13 12:23:00;;;;;;;1.83;0.80;;;;;;;;;;5044629;28;20042;-81
2022/07/13 12:25:47;;;;;;;1.38;0.50;;;;;;;;;;5030568;28;20057;-82
2022/07/13 12:28:37;;;;;;;1.33;0.73;;;;;;;;;;5044715;28;20034;-81
2022/07/13 12:31:23;;;;;;;1.60;0.68;;;;;;;;;;5030083;28;20180;-81
2022/07/13 12:34:10;;;;;;;1.50;0.43;;;;;;;;;;5043692;28;20076;-82
2022/07/13 12:36:56;;;;;;;1.30;0.55;;;;;;;;;;5043924;28;20038;-81
2022/07/13 12:39:43;;;;;;;1.50;0.70;;;;;;;;;;5043779;28;20068;-81
2022/07/13 12:42:28;;;;;;;1.65;0.60;;;;;;;;;;5044590;28;20128;-82
2022/07/13 12:45:15;;;;;;;2.92;1.02;;;;;;;;;;5045089;28;20097;-82
2022/07/13 12:48:01;;;;;;;1.27;0.52;;;;;;;;;;5043760;28;20030;-82
2022/07/13 12:50:59;;;;;;;1.20;0.50;;;;;;;;;;5032059;28;20107;-82
2022/07/13 12:53:49;;;;;;;1.13;0.60;;;;;;;;;;5034314;28;20490;-82
2022/07/13 12:56:48;;;;;;;1.25;0.60;;;;;;;;;;5047928;28;20103;-82
2022/07/13 12:59:34;;;;;;;1.42;0.60;;;;;;;;;;5046743;28;20041;-82
2022/07/13 13:02:20;;;;;;;1.27;0.60;;;;;;;;;;5033863;28;20049;-82
2022/07/13 13:05:08;;;;;;;0.70;0.50;;;;;;;;;;5046615;28;20197;-82
2022/07/13 13:07:54;;;;;;;1.15;0.55;;;;;;;;;;5046974;28;20124;-81
2022/07/13 13:10:39;;;;;;;1.83;0.88;;;;;;;;;;5046312;28;20049;-82
2022/07/13 13:13:25;;;;;;;1.15;0.60;;;;;;;;;;5048382;28;20048;-81
2022/07/13 13:16:11;;;;;;;2.28;0.57;;;;;;;;;;5048153;28;20087;-82
2022/07/13 13:18:56;;;;;;;4.75;0.60;;;;;;;;;;5046579;28;20041;-82
2022/07/13 13:21:42;;;;;;;1.67;0.50;;;;;;;;;;5047613;28;20095;-82
2022/07/13 13:24:28;;;;;;;1.40;0.70;;;;;;;;;;5033683;28;20049;-82
2022/07/13 13:27:14;;;;;;;0.60;0.35;;;;;;;;;;5045537;28;20029;-82
2022/07/13 13:33:04;;;;;;;1.17;0.52;;;;;;;;;;5044206;28;20075;-82
2022/07/13 13:35:49;;;;;;;1.05;0.65;;;;;;;;;;5033819;28;20034;-81
2022/07/13 13:38:35;;;;;;;1.02;0.45;;;;;;;;;;5032917;28;20045;-83
2022/07/13 13:41:21;;;;;;;1.20;0.65;;;;;;;;;;5046690;28;20048;-83
2022/07/13 13:44:06;;;;;;;1.45;0.60;;;;;;;;;;5033250;28;20041;-82
2022/07/13 13:46:52;;;;;;;1.30;0.60;;;;;;;;;;5047488;28;20034;-83
2022/07/13 13:49:38;;;;;;;1.23;0.60;;;;;;;;;;5046307;28;20412;-83
2022/07/13 13:52:24;;;;;;;1.27;0.40;;;;;;;;;;5047533;28;20565;-83
2022/07/13 13:55:10;;;;;;;1.23;0.65;;;;;;;;;;5046292;28;20043;-83
2022/07/13 13:57:56;;;;;;;2.17;0.93;;;;;;;;;;5034083;28;20041;-83
2022/07/13 14:00:42;;;;;;;2.03;0.80;;;;;;;;;;5033701;28;20037;-83
2022/07/13 14:03:28;;;;;;;1.02;0.60;;;;;;;;;;5045321;28;20419;-82
2022/07/13 14:06:14;;;;;;;1.25;0.57;;;;;;;;;;5045867;28;20037;-82
2022/07/13 14:08:59;;;;;;;1.55;0.57;;;;;;;;;;5032294;28;20045;-82
2022/07/13 14:11:46;;;;;;;1.25;0.57;;;;;;;;;;5047570;28;20057;-82
2022/07/13 14:14:31;;;;;;;1.08;0.70;;;;;;;;;;5045935;28;20437;-82
2022/07/13 14:17:17;;;;;;;1.35;0.80;;;;;;;;;;5045048;28;20111;-82
2022/07/13 14:20:03;;;;;;;0.68;0.32;;;;;;;;;;5032567;28;20111;-82
2022/07/13 14:22:49;;;;;;;1.23;0.47;;;;;;;;;;5033674;28;20053;-81
2022/07/13 14:25:35;;;;;;;1.00;0.52;;;;;;;;;;5033716;28;20424;-82
2022/07/13 14:28:20;;;;;;;0.57;0.40;;;;;;;;;;5045719;28;20435;-82
2022/07/13 14:31:06;;;;;;;2.08;0.65;;;;;;;;;;5032616;28;20523;-82
2022/07/13 14:33:52;;;;;;;1.30;0.70;;;;;;;;;;5032361;28;20428;-82
2022/07/13 14:36:37;;;;;;;1.25;0.52;;;;;;;;;;5044785;28;20038;-82
2022/07/13 14:39:23;;;;;;;1.05;0.52;;;;;;;;;;5031414;28;20496;-82
2022/07/13 14:42:10;;;;;;;0.70;0.50;;;;;;;;;;5031678;28;20111;-82
2022/07/13 14:44:55;;;;;;;0.90;0.60;;;;;;;;;;5046427;28;20045;-81
2022/07/13 14:47:41;;;;;;;1.52;0.50;;;;;;;;;;5046601;28;20034;-81
2022/07/13 14:50:27;;;;;;;1.70;0.73;;;;;;;;;;5045176;28;20050;-82
2022/07/13 14:53:13;;;;;;;1.27;0.50;;;;;;;;;;5046031;28;20088;-82
2022/07/13 14:55:58;;;;;;;1.83;0.73;;;;;;;;;;5046258;28;20095;-81
2022/07/13 14:58:44;;;;;;;1.20;0.40;;;;;;;;;;5044749;28;20065;-82
2022/07/13 15:01:30;;;;;;;1.45;0.60;;;;;;;;;;5044912;28;20046;-82
2022/07/13 15:04:17;;;;;;;0.82;0.50;;;;;;;;;;5044979;28;20049;-82
2022/07/13 15:07:02;;;;;;;0.90;0.38;;;;;;;;;;5031704;28;20033;-81
2022/07/13 15:09:48;;;;;;;1.77;0.55;;;;;;;;;;5044267;28;20049;-82
2022/07/13 15:12:34;;;;;;;0.70;0.60;;;;;;;;;;5045037;28;20033;-81
2022/07/13 15:15:20;;;;;;;1.33;0.60;;;;;;;;;;5043953;28;20041;-82
2022/07/13 15:18:05;;;;;;;1.27;0.65;;;;;;;;;;5031460;28;20091;-82
2022/07/13 15:20:51;;;;;;;1.30;0.55;;;;;;;;;;5044565;28;20128;-82
2022/07/13 15:23:37;;;;;;;1.10;0.52;;;;;;;;;;5044657;28;20055;-81
2022/07/13 15:26:23;;;;;;;1.25;0.70;;;;;;;;;;5044689;28;20044;-82
2022/07/13 15:29:09;;;;;;;0.90;0.50;;;;;;;;;;5045552;28;20037;-82
2022/07/13 15:31:56;;;;;;;0.60;0.35;;;;;;;;;;5044427;28;20484;-82
2022/07/13 15:34:42;;;;;;;0.82;0.38;;;;;;;;;;5032110;28;20036;-82
2022/07/13 15:37:27;;;;;;;0.80;0.40;;;;;;;;;;5044576;28;20049;-81
2022/07/13 15:40:13;;;;;;;0.98;0.50;;;;;;;;;;5030850;28;20045;-81
2022/07/13 15:42:59;;;;;;;1.08;0.45;;;;;;;;;;5031526;28;20492;-82
2022/07/13 15:45:44;;;;;;;1.27;0.35;;;;;;;;;;5044516;28;20034;-82
2022/07/13 15:48:30;;;;;;;0.93;0.45;;;;;;;;;;5045580;28;20064;-81
2022/07/13 15:51:16;;;;;;;0.95;0.40;;;;;;;;;;5044443;28;20056;-82
2022/07/13 15:54:02;;;;;;;1.00;0.40;;;;;;;;;;5044154;28;20048;-81
2022/07/13 15:56:48;;;;;;;1.52;0.50;;;;;;;;;;5044188;28;20115;-81
2022/07/13 15:59:33;;;;;;;1.00;0.50;;;;;;;;;;5044282;28;20041;-82
2022/07/13 16:02:19;;;;;;;1.35;0.40;;;;;;;;;;5045357;28;20038;-82
2022/07/13 16:05:06;;;;;;;1.08;0.40;;;;;;;;;;5044165;28;20048;-82
2022/07/13 16:07:51;;;;;;;0.73;0.40;;;;;;;;;;5044215;28;20037;-82
2022/07/13 16:10:37;;;;;;;1.25;0.40;;;;;;;;;;5043850;28;20045;-82
2022/07/13 16:13:23;;;;;;;0.85;0.40;;;;;;;;;;5044027;28;20037;-81
2022/07/13 16:16:10;;;;;;;0.98;0.43;;;;;;;;;;5032032;28;20048;-82
2022/07/13 16:18:56;;;;;;;0.93;0.35;;;;;;;;;;5031986;28;20515;-82
2022/07/13 16:21:43;;;;;;;1.13;0.60;;;;;;;;;;5044064;28;20529;-82
2022/07/13 16:24:29;;;;;;;0.70;0.40;;;;;;;;;;5045228;28;20450;-82
2022/07/13 16:27:15;;;;;;;1.27;0.43;;;;;;;;;;5047567;28;20041;-82
2022/07/13 16:30:00;;;;;;;1.05;0.45;;;;;;;;;;5047752;28;20038;-83
2022/07/13 16:32:46;;;;;;;1.20;0.40;;;;;;;;;;5048797;28;20107;-83
2022/07/13 16:35:32;;;;;;;1.50;0.52;;;;;;;;;;5035056;28;20401;-83
2022/07/13 16:38:18;;;;;;;0.73;0.50;;;;;;;;;;5048785;28;20103;-83
2022/07/13 16:41:04;;;;;;;0.98;0.45;;;;;;;;;;5048553;28;20041;-82
2022/07/13 16:43:49;;;;;;;0.70;0.30;;;;;;;;;;5033206;28;20053;-82
2022/07/13 16:46:35;;;;;;;0.88;0.40;;;;;;;;;;5035319;28;20041;-82
2022/07/13 16:49:21;;;;;;;1.23;0.60;;;;;;;;;;5048473;28;20057;-83
2022/07/13 16:52:06;;;;;;;0.75;0.38;;;;;;;;;;5047591;28;20049;-83